Overview Statistics Trail Chart Weather Telemetry Raw packets
 

This is the latest recevied weather packets stored in our database for station/object EA8BQU-10. If no packets are shown the sender has not sent any weather packets the latest 10 day(s).

<< 32 33 34 35 36 37 38 >>
Time Temp. Humidity Pressure Rain* Wind** Luminosity Snow
1787945759 23.33° C 100% 1020.3 hPa - - - -
1787944859 23.33° C 100% 1020.2 hPa - - - -
1787943958 20.56° C 100% 1016.1 hPa - - - -
1787943058 23.89° C 100% 1020.2 hPa - - - -
1787942152 23.89° C 100% 1020 hPa - - - -
1787941252 23.89° C 100% 1020.1 hPa - - - -
1787940352 23.89° C 100% 1020 hPa - - - -
1787939452 23.89° C 100% 1020.1 hPa - - - -
1787938552 23.89° C 100% 1020.1 hPa - - - -
1787937648 23.89° C 100% 1020.1 hPa - - - -
1787936754 23.89° C 100% 1020.1 hPa - - - -
1787935900 24.44° C 100% 1020 hPa - - - -
1787935854 24.44° C 100% 1020 hPa - - - -
1787934952 24.44° C 100% 1020.1 hPa - - - -
1787934053 25° C 100% 1020 hPa - - - -
1787933153 24.44° C 100% 1020 hPa - - - -
1787932252 24.44° C 100% 1020 hPa - - - -
1787931352 24.44° C 100% 1020.1 hPa - - - -
1787930452 24.44° C 100% 1020.3 hPa - - - -
1787929551 24.44° C 100% 1020.3 hPa - - - -
1787928691 23.89° C 100% 1020.4 hPa - - - -
1787928651 23.89° C 100% 1020.4 hPa - - - -
1787927756 23.89° C 100% 1020.5 hPa - - - -
1787926851 23.89° C 100% 1020.8 hPa - - - -
1787925951 23.89° C 100% 1021 hPa - - - -

* Rain since midnight (hover to see other rain measurements)
** Current wind speed in m/s (hover to see current wind gust speed)